createdAt,value
2017-11-23T00:01:01.626Z,33.33
2017-11-23T00:03:35.398Z,18.10
2017-11-23T00:06:09.161Z,24.58
2017-11-23T00:08:44.415Z,17.10
2017-11-23T00:11:18.089Z,20.50
2017-11-23T00:13:52.845Z,19.62
2017-11-23T00:16:26.556Z,23.80
2017-11-23T00:19:02.035Z,24.92
2017-11-23T00:21:36.382Z,24.12
2017-11-23T00:24:12.007Z,22.08
2017-11-23T00:26:46.297Z,19.05
2017-11-23T00:29:20.052Z,22.55
2017-11-23T00:31:53.686Z,20.88
2017-11-23T00:34:28.962Z,26.58
2017-11-23T00:37:03.542Z,19.55
2017-11-23T00:39:38.213Z,26.50
2017-11-23T00:42:11.855Z,29.65
2017-11-23T00:44:46.943Z,17.92
2017-11-23T00:47:20.765Z,18.50
2017-11-23T00:49:54.588Z,23.45
2017-11-23T00:52:29.880Z,18.12
2017-11-23T00:55:04.323Z,21.20
2017-11-23T00:57:38.829Z,22.75
2017-11-23T01:00:12.539Z,25.30
2017-11-23T01:02:46.398Z,18.62
2017-11-23T01:05:21.004Z,16.73
2017-11-23T01:07:54.782Z,26.58
2017-11-23T01:10:29.374Z,21.60
2017-11-23T01:13:03.983Z,22.60
2017-11-23T01:15:37.745Z,19.50
2017-11-23T01:18:12.343Z,27.83
2017-11-23T01:20:46.130Z,23.80
2017-11-23T01:23:21.855Z,24.05
2017-11-23T01:25:55.598Z,19.48
2017-11-23T01:28:29.312Z,25.48
2017-11-23T01:31:03.072Z,20.00
2017-11-23T01:33:36.877Z,21.17
2017-11-23T01:36:11.581Z,20.83
2017-11-23T01:38:45.300Z,22.75
2017-11-23T01:41:18.957Z,20.00
2017-11-23T01:43:52.772Z,21.67
2017-11-23T01:46:27.303Z,15.50
2017-11-23T01:49:01.157Z,16.95
2017-11-23T01:51:34.970Z,13.85
2017-11-23T01:54:09.549Z,22.50
2017-11-23T01:56:45.017Z,15.82
2017-11-23T01:59:19.595Z,15.10
2017-11-23T02:01:54.288Z,16.02
2017-11-23T02:04:28.279Z,13.98
2017-11-23T02:07:02.754Z,12.30
2017-11-23T02:09:36.782Z,12.07
2017-11-23T02:12:11.961Z,11.18
2017-11-23T02:14:46.228Z,12.10
2017-11-23T02:17:20.217Z,9.52
2017-11-23T02:19:54.079Z,15.48
2017-11-23T02:22:27.795Z,14.38
2017-11-23T02:25:02.475Z,16.05
2017-11-23T02:27:36.943Z,15.35
2017-11-23T02:30:11.808Z,14.55
2017-11-23T02:32:47.472Z,11.18
2017-11-23T02:35:21.128Z,9.18
2017-11-23T02:37:54.949Z,7.40
2017-11-23T02:40:30.763Z,5.72
2017-11-23T02:43:04.523Z,8.88
2017-11-23T02:45:39.145Z,5.12
2017-11-23T02:48:12.781Z,5.87
2017-11-23T02:50:47.420Z,6.80
2017-11-23T02:53:21.315Z,9.73
2017-11-23T02:55:56.883Z,8.60
2017-11-23T02:58:31.582Z,5.40
2017-11-23T03:01:05.856Z,5.03
2017-11-23T03:03:39.614Z,7.35
2017-11-23T03:06:13.337Z,9.00
2017-11-23T03:08:47.028Z,9.02
2017-11-23T03:11:21.423Z,8.60
2017-11-23T03:13:56.006Z,11.88
2017-11-23T03:16:29.828Z,12.57
2017-11-23T03:19:04.289Z,8.93
2017-11-23T03:21:38.749Z,16.77
2017-11-23T03:24:12.616Z,11.25
2017-11-23T03:26:47.242Z,10.35
2017-11-23T03:29:20.987Z,12.13
2017-11-23T03:31:55.314Z,14.73
2017-11-23T03:34:30.899Z,13.23
2017-11-23T03:37:04.794Z,10.38
2017-11-23T03:39:38.661Z,14.05
2017-11-23T03:42:13.335Z,12.15
2017-11-23T03:44:47.808Z,13.10
2017-11-23T03:47:21.492Z,12.50
2017-11-23T03:49:55.492Z,14.85
2017-11-23T03:52:29.808Z,11.27
2017-11-23T03:55:04.292Z,10.82
2017-11-23T03:57:38.140Z,10.55
2017-11-23T04:00:12.564Z,9.77
2017-11-23T04:02:46.181Z,9.07
2017-11-23T04:05:20.807Z,17.75
2017-11-23T04:07:56.130Z,8.85
2017-11-23T04:10:31.038Z,8.70
2017-11-23T04:13:04.850Z,13.85
2017-11-23T04:15:39.522Z,16.30
2017-11-23T04:18:13.919Z,20.77
2017-11-23T04:20:47.819Z,21.12
2017-11-23T04:23:22.246Z,14.43
2017-11-23T04:25:57.519Z,18.25
2017-11-23T04:28:31.331Z,15.65
2017-11-23T04:31:04.925Z,18.85
2017-11-23T04:33:38.713Z,9.68
2017-11-23T04:36:12.946Z,11.93
2017-11-23T04:38:46.821Z,7.62
2017-11-23T04:41:21.293Z,12.98
2017-11-23T04:43:55.219Z,11.68
2017-11-23T04:46:28.942Z,11.20
2017-11-23T04:49:02.837Z,8.48
2017-11-23T04:51:36.658Z,9.00
2017-11-23T04:54:10.505Z,8.57
2017-11-23T04:56:44.396Z,6.40
2017-11-23T04:59:18.814Z,6.12
2017-11-23T05:01:52.714Z,13.10
2017-11-23T05:04:26.433Z,11.00
2017-11-23T05:07:01.050Z,9.35
2017-11-23T05:09:34.828Z,9.48
2017-11-23T05:12:08.758Z,9.90
2017-11-23T05:14:42.702Z,12.80
2017-11-23T05:17:16.530Z,9.55
2017-11-23T05:19:50.357Z,10.88
2017-11-23T05:22:24.113Z,6.22
2017-11-23T05:24:58.638Z,10.82
2017-11-23T05:27:32.413Z,10.57
2017-11-23T05:30:06.730Z,7.50
2017-11-23T05:32:40.507Z,8.50
2017-11-23T05:35:15.077Z,9.85
2017-11-23T05:37:48.934Z,8.02
2017-11-23T05:40:23.359Z,11.85
2017-11-23T05:42:57.973Z,11.93
2017-11-23T05:45:31.757Z,7.85
2017-11-23T05:48:06.168Z,10.80
2017-11-23T05:50:41.478Z,7.70
2017-11-23T05:53:16.190Z,8.52
2017-11-23T05:55:51.504Z,20.55
2017-11-23T05:58:25.240Z,10.77
2017-11-23T06:00:59.011Z,11.43
2017-11-23T06:03:33.157Z,8.98
2017-11-23T06:06:07.378Z,12.13
2017-11-23T06:08:43.086Z,11.45
2017-11-23T06:11:17.665Z,7.18
2017-11-23T06:13:52.644Z,11.90
2017-11-23T06:16:27.733Z,17.95
2017-11-23T06:19:03.077Z,14.55
2017-11-23T06:21:36.650Z,16.48
2017-11-23T06:24:10.654Z,14.20
2017-11-23T06:26:44.413Z,16.05
2017-11-23T06:29:19.074Z,10.23
2017-11-23T06:31:54.321Z,12.80
2017-11-23T06:34:28.186Z,13.50
2017-11-23T06:37:03.795Z,11.45
2017-11-23T06:39:38.286Z,19.12
2017-11-23T06:42:12.050Z,19.25
2017-11-23T06:44:47.704Z,15.80
2017-11-23T06:47:21.531Z,23.30
2017-11-23T06:49:55.373Z,30.92
2017-11-23T06:52:30.502Z,35.75
2017-11-23T06:55:05.301Z,38.00
2017-11-23T06:57:39.083Z,42.55
2017-11-23T07:00:12.947Z,30.58
2017-11-23T07:02:46.790Z,41.97
2017-11-23T07:05:21.276Z,30.62
2017-11-23T07:07:56.158Z,26.50
2017-11-23T07:10:30.595Z,27.37
2017-11-23T07:13:04.425Z,28.92
2017-11-23T07:15:38.284Z,25.37
2017-11-23T07:18:12.936Z,29.70
2017-11-23T07:20:46.696Z,31.70
2017-11-23T07:23:24.280Z,23.65
2017-11-23T07:25:57.950Z,18.02
2017-11-23T07:28:31.791Z,20.83
2017-11-23T07:31:06.445Z,17.35
2017-11-23T07:33:40.318Z,27.00
2017-11-23T07:36:14.089Z,41.75
2017-11-23T07:38:47.949Z,29.08
2017-11-23T07:41:21.793Z,25.17
2017-11-23T07:43:55.643Z,27.87
2017-11-23T07:46:30.420Z,27.58
2017-11-23T07:49:04.193Z,38.35
2017-11-23T07:51:38.590Z,27.02
2017-11-23T07:54:12.223Z,35.10
2017-11-23T07:56:45.982Z,29.83
2017-11-23T07:59:20.744Z,31.52
2017-11-23T08:01:54.941Z,28.05
2017-11-23T08:04:29.394Z,27.92
2017-11-23T08:07:03.016Z,25.15
2017-11-23T08:09:36.896Z,24.10
2017-11-23T08:12:11.366Z,21.33
2017-11-23T08:14:46.439Z,31.98
2017-11-23T08:17:20.195Z,25.65
2017-11-23T08:19:56.651Z,30.17
2017-11-23T08:22:30.470Z,34.22
2017-11-23T08:25:04.172Z,30.70
2017-11-23T08:27:39.459Z,28.05
2017-11-23T08:30:13.836Z,28.10
2017-11-23T08:32:47.811Z,19.80
2017-11-23T08:35:22.693Z,21.95
2017-11-23T08:37:56.467Z,18.58
2017-11-23T08:40:31.162Z,15.98
2017-11-23T08:43:05.072Z,14.90
2017-11-23T08:45:39.781Z,14.93
2017-11-23T08:48:14.395Z,17.60
2017-11-23T08:50:48.187Z,15.90
2017-11-23T08:53:22.173Z,14.98
2017-11-23T08:55:55.844Z,13.95
2017-11-23T08:58:29.741Z,29.95
2017-11-23T09:01:04.226Z,20.35
2017-11-23T09:03:37.920Z,15.60
2017-11-23T09:06:12.702Z,8.88
2017-11-23T09:08:46.449Z,14.90
2017-11-23T09:11:20.390Z,10.77
2017-11-23T09:13:54.203Z,7.10
2017-11-23T09:16:28.600Z,9.30
2017-11-23T09:19:02.392Z,21.15
2017-11-23T09:21:37.103Z,9.38
2017-11-23T09:24:10.867Z,8.10
2017-11-23T09:26:45.495Z,6.05
2017-11-23T09:29:19.264Z,7.80
2017-11-23T09:31:53.783Z,5.53
2017-11-23T09:34:27.495Z,5.75
2017-11-23T09:37:02.697Z,4.82
2017-11-23T09:39:37.221Z,12.43
2017-11-23T09:42:11.126Z,7.93
2017-11-23T09:44:44.950Z,4.70
2017-11-23T09:47:18.772Z,3.47
2017-11-23T09:49:53.114Z,2.67
2017-11-23T09:52:28.051Z,3.28
2017-11-23T09:55:03.692Z,3.40
2017-11-23T09:57:38.464Z,2.85
2017-11-23T10:00:12.445Z,3.20
2017-11-23T10:02:46.989Z,2.45
2017-11-23T10:05:21.584Z,1.20
2017-11-23T10:07:55.159Z,1.73
2017-11-23T10:10:28.910Z,2.75
2017-11-23T10:13:02.723Z,1.67
2017-11-23T10:15:38.299Z,1.52
2017-11-23T10:18:11.936Z,0.75
2017-11-23T10:20:45.902Z,1.33
2017-11-23T10:23:19.609Z,1.60
2017-11-23T10:25:53.528Z,0.80
2017-11-23T10:28:27.247Z,1.40
2017-11-23T10:31:01.035Z,1.60
2017-11-23T10:33:35.427Z,1.10
2017-11-23T10:36:09.105Z,2.87
2017-11-23T10:38:42.810Z,4.20
2017-11-23T10:41:17.555Z,7.45
2017-11-23T10:43:52.211Z,4.22
2017-11-23T10:46:26.091Z,3.35
2017-11-23T10:49:00.101Z,3.83
2017-11-23T10:51:34.797Z,1.33
2017-11-23T10:54:08.603Z,1.67
2017-11-23T10:56:42.371Z,3.72
2017-11-23T10:59:16.078Z,1.12
2017-11-23T11:01:49.851Z,1.48
2017-11-23T11:04:23.623Z,0.75
2017-11-23T11:06:57.398Z,1.10
2017-11-23T11:09:31.304Z,1.10
2017-11-23T11:12:07.128Z,1.10
2017-11-23T11:14:40.995Z,0.88
2017-11-23T11:17:15.528Z,1.65
2017-11-23T11:19:50.158Z,1.12
2017-11-23T11:22:25.375Z,1.37
2017-11-23T11:25:01.097Z,1.92
2017-11-23T11:27:34.717Z,1.60
2017-11-23T11:30:08.606Z,1.25
2017-11-23T11:32:42.382Z,2.45
2017-11-23T11:35:16.097Z,1.55
2017-11-23T11:37:50.870Z,1.23
2017-11-23T11:40:25.396Z,0.80
2017-11-23T11:42:59.137Z,3.08
2017-11-23T11:45:32.963Z,1.17
2017-11-23T11:48:08.324Z,3.60
2017-11-23T11:50:42.141Z,2.17
2017-11-23T11:53:15.950Z,1.20
2017-11-23T11:55:50.604Z,1.00
2017-11-23T11:58:24.533Z,4.53
2017-11-23T12:00:59.221Z,1.10
2017-11-23T12:03:33.010Z,4.72
2017-11-23T12:06:07.606Z,4.62
2017-11-23T12:08:41.288Z,1.65
2017-11-23T12:11:15.789Z,1.87
2017-11-23T12:14:01.508Z,9.07
2017-11-23T12:16:47.398Z,1.42
2017-11-23T12:19:21.245Z,1.15
2017-11-23T12:22:00.994Z,3.35
2017-11-23T12:24:35.580Z,3.35
2017-11-23T12:27:10.097Z,1.67
2017-11-23T12:29:56.662Z,1.27
2017-11-23T12:32:30.435Z,2.95
2017-11-23T12:35:04.956Z,1.87
2017-11-23T12:37:40.616Z,2.28
2017-11-23T12:40:14.531Z,2.80
2017-11-23T12:42:48.999Z,1.90
2017-11-23T12:45:22.898Z,2.33
2017-11-23T12:47:57.398Z,4.00
2017-11-23T12:50:31.863Z,13.43
2017-11-23T12:53:06.496Z,3.55
2017-11-23T12:55:40.324Z,2.30
2017-11-23T12:58:14.055Z,3.10
2017-11-23T13:00:47.821Z,1.73
2017-11-23T13:03:21.522Z,3.47
2017-11-23T13:05:55.514Z,1.50
2017-11-23T13:08:30.013Z,4.03
2017-11-23T13:11:04.428Z,2.58
2017-11-23T13:13:39.231Z,3.20
2017-11-23T13:16:12.962Z,3.92
2017-11-23T13:18:46.801Z,1.70
2017-11-23T13:21:20.730Z,3.55
2017-11-23T13:23:54.585Z,17.87
2017-11-23T13:26:28.866Z,5.20
2017-11-23T13:29:03.587Z,5.07
2017-11-23T13:31:38.189Z,3.65
2017-11-23T13:34:11.863Z,8.68
2017-11-23T13:36:45.699Z,12.37
2017-11-23T13:39:19.423Z,5.82
2017-11-23T13:41:53.782Z,3.37
2017-11-23T13:44:27.436Z,10.38
2017-11-23T13:47:01.965Z,6.00
2017-11-23T13:49:35.683Z,2.85
2017-11-23T13:52:09.420Z,3.28
2017-11-23T13:54:43.408Z,1.70
2017-11-23T13:57:17.209Z,3.35
2017-11-23T13:59:50.941Z,8.50
2017-11-23T14:02:24.900Z,5.40
2017-11-23T14:05:00.093Z,1.75
2017-11-23T14:07:33.957Z,4.43
2017-11-23T14:10:09.424Z,4.70
2017-11-23T14:12:44.255Z,4.82
2017-11-23T14:15:18.022Z,2.42
2017-11-23T14:17:51.756Z,3.22
2017-11-23T14:20:25.476Z,14.75
2017-11-23T14:22:59.398Z,11.35
2017-11-23T14:25:34.032Z,4.47
2017-11-23T14:28:07.899Z,1.45
2017-11-23T14:30:41.659Z,2.15
2017-11-23T14:33:16.056Z,7.50
2017-11-23T14:35:49.843Z,1.50
2017-11-23T14:38:23.708Z,5.97
2017-11-23T14:40:59.842Z,4.87
2017-11-23T14:43:34.285Z,5.62
2017-11-23T14:46:09.666Z,13.73
2017-11-23T14:48:43.334Z,6.10
2017-11-23T14:51:17.726Z,30.85
2017-11-23T14:53:51.452Z,29.83
2017-11-23T14:56:27.141Z,17.52
2017-11-23T14:59:01.089Z,10.30
2017-11-23T15:01:34.624Z,18.02
2017-11-23T15:04:08.536Z,18.95
2017-11-23T15:06:43.012Z,9.88
2017-11-23T15:09:17.552Z,122.05
2017-11-23T15:11:52.930Z,46.55
2017-11-23T15:14:26.672Z,51.97
2017-11-23T15:17:00.484Z,49.05
2017-11-23T15:19:35.255Z,35.20
2017-11-23T15:22:09.688Z,44.40
2017-11-23T15:24:43.448Z,42.00
2017-11-23T15:27:18.077Z,37.17
2017-11-23T15:29:51.803Z,39.75
2017-11-23T15:32:25.467Z,45.38
2017-11-23T15:34:59.353Z,23.92
2017-11-23T15:37:34.550Z,7.40
2017-11-23T15:40:08.164Z,9.73
2017-11-23T15:42:42.584Z,9.82
2017-11-23T15:45:16.503Z,24.45
2017-11-23T15:47:50.241Z,34.30
2017-11-23T15:50:24.073Z,35.78
2017-11-23T15:52:58.211Z,41.50
2017-11-23T15:55:32.947Z,94.18
2017-11-23T15:58:07.541Z,51.80
2017-11-23T16:00:41.994Z,44.10
2017-11-23T16:03:15.668Z,37.05
2017-11-23T16:05:49.750Z,61.60
2017-11-23T16:08:24.295Z,51.65
2017-11-23T16:10:58.225Z,53.00
2017-11-23T16:13:32.698Z,58.10
2017-11-23T16:16:06.538Z,72.18
2017-11-23T16:18:40.968Z,86.40
2017-11-23T16:21:15.878Z,54.75
2017-11-23T16:23:49.724Z,40.75
2017-11-23T16:26:24.781Z,53.90
2017-11-23T16:28:58.604Z,57.08
2017-11-23T16:31:32.298Z,52.40
2017-11-23T16:34:06.955Z,53.75
2017-11-23T16:36:43.346Z,62.10
2017-11-23T16:39:17.723Z,51.85
2017-11-23T16:42:08.302Z,190.85
2017-11-23T16:44:48.914Z,158.30
2017-11-23T16:47:29.047Z,100.40
2017-11-23T17:03:44.055Z,59.40
2017-11-23T17:06:23.389Z,46.83
2017-11-23T17:09:03.692Z,46.67
2017-11-23T17:11:43.422Z,44.97
2017-11-23T17:14:22.805Z,32.97
2017-11-23T17:17:02.236Z,28.98
2017-11-23T17:19:36.037Z,27.00
2017-11-23T17:22:09.774Z,24.00
2017-11-23T17:24:44.518Z,21.60
2017-11-23T17:27:18.302Z,22.73
2017-11-23T17:29:52.054Z,37.88
2017-11-23T17:32:26.915Z,43.67
2017-11-23T17:35:02.883Z,35.80
2017-11-23T17:37:36.952Z,31.70
2017-11-23T17:40:10.887Z,25.88
2017-11-23T17:42:45.152Z,25.08
2017-11-23T17:45:19.869Z,13.93
2017-11-23T17:47:54.208Z,23.73
2017-11-23T17:50:29.000Z,17.95
2017-11-23T17:53:02.857Z,24.08
2017-11-23T17:55:36.676Z,14.07
2017-11-23T17:58:10.557Z,16.12
2017-11-23T18:00:45.213Z,21.08
2017-11-23T18:03:19.293Z,16.87
2017-11-23T18:05:53.035Z,18.52
2017-11-23T18:08:26.793Z,8.80
2017-11-23T18:11:00.626Z,13.60
2017-11-23T18:13:35.138Z,12.05
2017-11-23T18:16:08.923Z,6.97
2017-11-23T18:18:42.627Z,12.73
2017-11-23T18:21:17.742Z,15.13
2017-11-23T18:23:52.399Z,8.48
2017-11-23T18:26:27.106Z,13.88
2017-11-23T18:29:00.950Z,11.48
2017-11-23T18:31:35.704Z,40.35
2017-11-23T18:34:09.459Z,35.92
2017-11-23T18:36:43.809Z,30.58
2017-11-23T18:39:17.521Z,20.75
2017-11-23T18:41:52.213Z,20.77
2017-11-23T18:44:25.784Z,14.43
2017-11-23T18:46:59.792Z,28.87
2017-11-23T18:49:35.079Z,18.37
2017-11-23T18:52:08.966Z,21.02
2017-11-23T18:54:42.702Z,18.45
2017-11-23T18:57:16.490Z,20.58
2017-11-23T18:59:50.679Z,23.30
2017-11-23T19:02:24.428Z,24.90
2017-11-23T19:04:58.959Z,23.02
2017-11-23T19:07:34.557Z,20.77
2017-11-23T19:10:08.251Z,28.40
2017-11-23T19:12:42.230Z,32.55
2017-11-23T19:15:16.235Z,26.50
2017-11-23T19:17:51.012Z,27.25
2017-11-23T19:20:26.485Z,28.00
2017-11-23T19:23:00.912Z,34.00
2017-11-23T19:25:34.850Z,32.30
2017-11-23T19:28:08.775Z,34.17
2017-11-23T19:30:43.178Z,33.65
2017-11-23T19:33:17.960Z,53.58
2017-11-23T19:35:52.571Z,47.38
2017-11-23T19:38:26.219Z,38.90
2017-11-23T19:41:00.602Z,42.17
2017-11-23T19:43:35.203Z,34.28
2017-11-23T19:46:08.893Z,26.87
2017-11-23T19:48:42.811Z,33.13
2017-11-23T19:51:17.410Z,34.53
2017-11-23T19:53:51.972Z,36.97
2017-11-23T19:56:26.506Z,41.00
2017-11-23T19:59:00.334Z,31.10
2017-11-23T20:01:34.834Z,31.08
2017-11-23T20:04:09.705Z,29.15
2017-11-23T20:06:43.480Z,31.15
2017-11-23T20:09:17.275Z,33.10
2017-11-23T20:11:51.132Z,26.48
2017-11-23T20:14:25.032Z,31.90
2017-11-23T20:17:00.432Z,29.42
2017-11-23T20:19:34.110Z,27.35
2017-11-23T20:22:09.917Z,26.30
2017-11-23T20:24:43.733Z,27.85
2017-11-23T20:27:18.323Z,23.10
2017-11-23T20:29:53.086Z,31.05
2017-11-23T20:32:27.571Z,29.00
2017-11-23T20:35:02.932Z,30.35
2017-11-23T20:37:36.599Z,23.52
2017-11-23T20:40:10.420Z,28.33
2017-11-23T20:42:44.228Z,24.83
2017-11-23T20:45:18.103Z,28.27
2017-11-23T20:47:52.694Z,29.23
2017-11-23T20:50:28.074Z,23.87
2017-11-23T20:53:01.845Z,31.23
2017-11-23T20:55:35.890Z,27.75
2017-11-23T20:58:09.857Z,28.85
2017-11-23T21:00:43.666Z,38.25
2017-11-23T21:03:17.463Z,28.73
2017-11-23T21:05:51.922Z,27.52
2017-11-23T21:08:25.670Z,29.65
2017-11-23T21:10:59.337Z,27.40
2017-11-23T21:13:33.186Z,22.45
2017-11-23T21:16:06.765Z,29.55
2017-11-23T21:18:40.480Z,34.55
2017-11-23T21:21:14.162Z,24.02
2017-11-23T21:23:47.902Z,24.25
2017-11-23T21:26:21.412Z,22.90
2017-11-23T21:28:54.992Z,34.00
2017-11-23T21:31:28.761Z,22.92
2017-11-23T21:34:02.522Z,26.67
2017-11-23T21:36:36.344Z,20.83
2017-11-23T21:39:10.080Z,25.37
2017-11-23T21:41:44.580Z,25.83
2017-11-23T21:44:18.355Z,24.08
2017-11-23T21:46:51.957Z,31.25
2017-11-23T21:49:25.730Z,28.70
2017-11-23T21:52:00.168Z,31.42
2017-11-23T21:54:33.871Z,30.58
2017-11-23T21:57:08.242Z,23.67
2017-11-23T21:59:41.942Z,30.00
2017-11-23T22:02:15.635Z,27.77
2017-11-23T22:04:49.398Z,30.85
2017-11-23T22:07:23.064Z,31.73
2017-11-23T22:09:56.880Z,36.17
2017-11-23T22:12:30.418Z,26.37
2017-11-23T22:15:03.983Z,29.87
2017-11-23T22:17:37.723Z,33.65
2017-11-23T22:20:11.304Z,25.40
2017-11-23T22:22:44.911Z,31.23
2017-11-23T22:25:18.463Z,27.52
2017-11-23T22:27:56.568Z,27.65
2017-11-23T22:30:37.456Z,30.20
2017-11-23T22:33:22.808Z,28.75
2017-11-23T22:36:06.875Z,29.87
2017-11-23T22:38:45.639Z,31.62
2017-11-23T22:41:24.786Z,25.27
2017-11-23T22:44:04.349Z,29.37
2017-11-23T22:46:45.938Z,23.75
2017-11-23T22:49:22.780Z,33.20
2017-11-23T22:52:02.500Z,22.10
2017-11-23T22:54:41.503Z,30.23
2017-11-23T22:57:16.466Z,15.90
2017-11-23T22:59:56.104Z,22.40
2017-11-23T23:02:32.381Z,21.10
2017-11-23T23:05:08.617Z,19.52
2017-11-23T23:07:56.750Z,9.70
2017-11-23T23:10:31.189Z,9.50
2017-11-23T23:13:05.102Z,11.50
2017-11-23T23:15:40.802Z,15.23
2017-11-23T23:18:16.681Z,16.87
2017-11-23T23:20:51.536Z,16.65
2017-11-23T23:23:27.538Z,17.40
2017-11-23T23:26:05.070Z,19.52
2017-11-23T23:28:42.719Z,18.15
2017-11-23T23:31:19.093Z,17.20
2017-11-23T23:33:54.749Z,23.00
2017-11-23T23:36:30.574Z,19.98
2017-11-23T23:39:08.602Z,15.05
2017-11-23T23:41:46.221Z,17.85
2017-11-23T23:44:21.652Z,21.15
2017-11-23T23:46:59.526Z,20.12
2017-11-23T23:49:35.950Z,19.62
2017-11-23T23:52:11.404Z,17.30
2017-11-23T23:54:46.179Z,14.90
2017-11-23T23:57:22.329Z,14.25
2017-11-23T23:59:58.027Z,16.55
